sensor_id;sensor_type;location;lat;lon;timestamp;P1;durP1;ratioP1;P2;durP2;ratioP2
39214;SDS011;24932;51.746;14.334;2024-03-08T00:00:38;53.93;;;21.8;;
39214;SDS011;24932;51.746;14.334;2024-03-08T00:04:39;48.93;;;21.3;;
39214;SDS011;24932;51.746;14.334;2024-03-08T00:08:40;45.9;;;20.3;;
39214;SDS011;24932;51.746;14.334;2024-03-08T00:12:38;62.83;;;23.7;;
39214;SDS011;24932;51.746;14.334;2024-03-08T00:16:39;46.13;;;21.33;;
39214;SDS011;24932;51.746;14.334;2024-03-08T00:20:40;52.67;;;21.87;;
39214;SDS011;24932;51.746;14.334;2024-03-08T00:24:39;49.03;;;21.1;;
39214;SDS011;24932;51.746;14.334;2024-03-08T00:28:40;54.87;;;22.47;;
39214;SDS011;24932;51.746;14.334;2024-03-08T00:32:39;50.93;;;21.67;;
39214;SDS011;24932;51.746;14.334;2024-03-08T00:36:40;54.4;;;22.87;;
39214;SDS011;24932;51.746;14.334;2024-03-08T00:40:40;55.43;;;23.47;;
39214;SDS011;24932;51.746;14.334;2024-03-08T00:44:40;65.8;;;25.13;;
39214;SDS011;24932;51.746;14.334;2024-03-08T00:48:38;56.4;;;22.97;;
39214;SDS011;24932;51.746;14.334;2024-03-08T00:52:38;53.6;;;23.73;;
39214;SDS011;24932;51.746;14.334;2024-03-08T00:56:40;56.83;;;23.6;;
39214;SDS011;24932;51.746;14.334;2024-03-08T01:00:39;50.17;;;21.27;;
39214;SDS011;24932;51.746;14.334;2024-03-08T01:04:39;53.33;;;24.03;;
39214;SDS011;24932;51.746;14.334;2024-03-08T01:08:40;67.13;;;23.47;;
39214;SDS011;24932;51.746;14.334;2024-03-08T01:12:39;57.93;;;23.5;;
39214;SDS011;24932;51.746;14.334;2024-03-08T01:16:39;58.77;;;23.13;;
39214;SDS011;24932;51.746;14.334;2024-03-08T01:20:40;49.83;;;22.33;;
39214;SDS011;24932;51.746;14.334;2024-03-08T01:24:40;57.73;;;23.23;;
39214;SDS011;24932;51.746;14.334;2024-03-08T01:28:40;54.2;;;21.93;;
39214;SDS011;24932;51.746;14.334;2024-03-08T01:32:40;53.07;;;22.57;;
39214;SDS011;24932;51.746;14.334;2024-03-08T01:36:39;54.8;;;23.27;;
39214;SDS011;24932;51.746;14.334;2024-03-08T01:40:38;65.77;;;24.2;;
39214;SDS011;24932;51.746;14.334;2024-03-08T01:44:39;56.0;;;24.1;;
39214;SDS011;24932;51.746;14.334;2024-03-08T01:48:40;54.6;;;25.17;;
39214;SDS011;24932;51.746;14.334;2024-03-08T01:52:39;55.63;;;23.37;;
39214;SDS011;24932;51.746;14.334;2024-03-08T01:56:40;60.83;;;25.8;;
39214;SDS011;24932;51.746;14.334;2024-03-08T02:00:40;70.73;;;25.6;;
39214;SDS011;24932;51.746;14.334;2024-03-08T02:04:39;60.07;;;23.97;;
39214;SDS011;24932;51.746;14.334;2024-03-08T02:08:39;65.57;;;23.7;;
39214;SDS011;24932;51.746;14.334;2024-03-08T02:12:39;60.8;;;23.6;;
39214;SDS011;24932;51.746;14.334;2024-03-08T02:16:38;56.07;;;24.77;;
39214;SDS011;24932;51.746;14.334;2024-03-08T02:20:39;60.6;;;25.17;;
39214;SDS011;24932;51.746;14.334;2024-03-08T02:24:40;68.33;;;22.47;;
39214;SDS011;24932;51.746;14.334;2024-03-08T02:28:39;58.93;;;22.07;;
39214;SDS011;24932;51.746;14.334;2024-03-08T02:32:39;62.13;;;24.1;;
39214;SDS011;24932;51.746;14.334;2024-03-08T02:36:40;55.4;;;22.77;;
39214;SDS011;24932;51.746;14.334;2024-03-08T02:40:40;57.07;;;23.17;;
39214;SDS011;24932;51.746;14.334;2024-03-08T02:44:42;65.07;;;22.8;;
39214;SDS011;24932;51.746;14.334;2024-03-08T02:48:39;58.3;;;22.4;;
39214;SDS011;24932;51.746;14.334;2024-03-08T02:52:40;53.93;;;22.53;;
39214;SDS011;24932;51.746;14.334;2024-03-08T02:56:40;47.5;;;20.97;;
39214;SDS011;24932;51.746;14.334;2024-03-08T03:00:39;57.4;;;22.7;;
39214;SDS011;24932;51.746;14.334;2024-03-08T03:04:40;59.83;;;22.7;;
39214;SDS011;24932;51.746;14.334;2024-03-08T03:08:39;44.1;;;20.27;;
39214;SDS011;24932;51.746;14.334;2024-03-08T03:12:40;54.33;;;21.93;;
39214;SDS011;24932;51.746;14.334;2024-03-08T03:16:39;56.57;;;21.13;;
39214;SDS011;24932;51.746;14.334;2024-03-08T03:20:38;53.33;;;22.07;;
39214;SDS011;24932;51.746;14.334;2024-03-08T03:24:39;44.5;;;20.4;;
39214;SDS011;24932;51.746;14.334;2024-03-08T03:28:40;47.43;;;21.8;;
39214;SDS011;24932;51.746;14.334;2024-03-08T03:32:39;53.93;;;21.33;;
39214;SDS011;24932;51.746;14.334;2024-03-08T03:36:39;65.43;;;24.7;;
39214;SDS011;24932;51.746;14.334;2024-03-08T03:40:40;59.43;;;22.87;;
39214;SDS011;24932;51.746;14.334;2024-03-08T03:44:40;56.97;;;23.37;;
39214;SDS011;24932;51.746;14.334;2024-03-08T03:48:40;57.13;;;24.03;;
39214;SDS011;24932;51.746;14.334;2024-03-08T03:52:39;56.8;;;23.87;;
39214;SDS011;24932;51.746;14.334;2024-03-08T03:56:40;57.57;;;23.23;;
39214;SDS011;24932;51.746;14.334;2024-03-08T04:00:39;55.0;;;23.63;;
39214;SDS011;24932;51.746;14.334;2024-03-08T04:04:39;66.7;;;24.43;;
39214;SDS011;24932;51.746;14.334;2024-03-08T04:08:38;62.03;;;23.77;;
39214;SDS011;24932;51.746;14.334;2024-03-08T04:12:39;57.43;;;24.1;;
39214;SDS011;24932;51.746;14.334;2024-03-08T04:16:40;53.77;;;24.43;;
39214;SDS011;24932;51.746;14.334;2024-03-08T04:20:39;53.6;;;23.57;;
39214;SDS011;24932;51.746;14.334;2024-03-08T04:24:40;59.77;;;24.43;;
39214;SDS011;24932;51.746;14.334;2024-03-08T04:28:40;64.1;;;24.17;;
39214;SDS011;24932;51.746;14.334;2024-03-08T04:32:39;61.43;;;24.6;;
39214;SDS011;24932;51.746;14.334;2024-03-08T04:36:38;66.37;;;26.0;;
39214;SDS011;24932;51.746;14.334;2024-03-08T04:40:40;55.2;;;24.03;;
39214;SDS011;24932;51.746;14.334;2024-03-08T04:44:39;72.67;;;26.77;;
39214;SDS011;24932;51.746;14.334;2024-03-08T04:48:40;53.47;;;23.8;;
39214;SDS011;24932;51.746;14.334;2024-03-08T04:52:40;55.67;;;23.27;;
39214;SDS011;24932;51.746;14.334;2024-03-08T04:56:40;55.47;;;22.5;;
39214;SDS011;24932;51.746;14.334;2024-03-08T05:00:40;62.07;;;23.93;;
39214;SDS011;24932;51.746;14.334;2024-03-08T05:04:39;79.2;;;25.37;;
39214;SDS011;24932;51.746;14.334;2024-03-08T05:08:39;64.43;;;24.0;;
39214;SDS011;24932;51.746;14.334;2024-03-08T05:12:40;68.87;;;25.0;;
39214;SDS011;24932;51.746;14.334;2024-03-08T05:16:39;61.37;;;24.53;;
39214;SDS011;24932;51.746;14.334;2024-03-08T05:20:40;56.73;;;24.9;;
39214;SDS011;24932;51.746;14.334;2024-03-08T05:24:39;63.13;;;26.77;;
39214;SDS011;24932;51.746;14.334;2024-03-08T05:28:39;58.63;;;24.5;;
39214;SDS011;24932;51.746;14.334;2024-03-08T05:32:40;56.8;;;25.8;;
39214;SDS011;24932;51.746;14.334;2024-03-08T05:36:39;67.83;;;24.07;;
39214;SDS011;24932;51.746;14.334;2024-03-08T05:40:38;71.2;;;25.8;;
39214;SDS011;24932;51.746;14.334;2024-03-08T05:44:40;74.23;;;26.2;;
39214;SDS011;24932;51.746;14.334;2024-03-08T05:48:40;55.77;;;23.7;;
39214;SDS011;24932;51.746;14.334;2024-03-08T05:52:40;67.2;;;26.47;;
39214;SDS011;24932;51.746;14.334;2024-03-08T05:56:40;67.83;;;25.57;;
39214;SDS011;24932;51.746;14.334;2024-03-08T06:00:40;71.4;;;27.07;;
39214;SDS011;24932;51.746;14.334;2024-03-08T06:04:40;77.57;;;27.6;;
39214;SDS011;24932;51.746;14.334;2024-03-08T06:08:39;70.03;;;27.73;;
39214;SDS011;24932;51.746;14.334;2024-03-08T06:12:40;63.47;;;24.57;;
39214;SDS011;24932;51.746;14.334;2024-03-08T06:16:39;69.17;;;30.07;;
39214;SDS011;24932;51.746;14.334;2024-03-08T06:20:38;70.83;;;29.63;;
39214;SDS011;24932;51.746;14.334;2024-03-08T06:24:40;65.83;;;29.17;;
39214;SDS011;24932;51.746;14.334;2024-03-08T06:28:40;69.13;;;30.7;;
39214;SDS011;24932;51.746;14.334;2024-03-08T06:32:40;65.3;;;27.2;;
39214;SDS011;24932;51.746;14.334;2024-03-08T06:36:40;59.53;;;28.0;;
39214;SDS011;24932;51.746;14.334;2024-03-08T06:40:40;52.93;;;24.23;;
39214;SDS011;24932;51.746;14.334;2024-03-08T06:44:40;68.37;;;28.37;;
39214;SDS011;24932;51.746;14.334;2024-03-08T06:48:40;55.97;;;25.07;;
39214;SDS011;24932;51.746;14.334;2024-03-08T06:52:39;53.9;;;27.48;;
39214;SDS011;24932;51.746;14.334;2024-03-08T06:56:40;54.15;;;24.87;;
39214;SDS011;24932;51.746;14.334;2024-03-08T07:00:38;56.53;;;26.17;;
39214;SDS011;24932;51.746;14.334;2024-03-08T07:04:38;57.73;;;25.43;;
39214;SDS011;24932;51.746;14.334;2024-03-08T07:08:40;53.37;;;24.17;;
39214;SDS011;24932;51.746;14.334;2024-03-08T07:12:40;52.93;;;25.93;;
39214;SDS011;24932;51.746;14.334;2024-03-08T07:16:40;43.03;;;22.27;;
39214;SDS011;24932;51.746;14.334;2024-03-08T07:20:38;54.5;;;26.17;;
39214;SDS011;24932;51.746;14.334;2024-03-08T07:24:40;61.53;;;26.43;;
39214;SDS011;24932;51.746;14.334;2024-03-08T07:28:39;57.33;;;24.27;;
39214;SDS011;24932;51.746;14.334;2024-03-08T07:32:39;58.83;;;25.93;;
39214;SDS011;24932;51.746;14.334;2024-03-08T07:36:40;69.23;;;24.5;;
39214;SDS011;24932;51.746;14.334;2024-03-08T07:40:39;62.13;;;25.9;;
39214;SDS011;24932;51.746;14.334;2024-03-08T07:44:40;62.1;;;26.43;;
39214;SDS011;24932;51.746;14.334;2024-03-08T07:48:39;58.7;;;25.7;;
39214;SDS011;24932;51.746;14.334;2024-03-08T07:52:40;58.8;;;26.87;;
39214;SDS011;24932;51.746;14.334;2024-03-08T07:56:39;53.27;;;24.13;;
39214;SDS011;24932;51.746;14.334;2024-03-08T08:00:39;53.23;;;25.37;;
39214;SDS011;24932;51.746;14.334;2024-03-08T08:04:40;65.03;;;26.93;;
39214;SDS011;24932;51.746;14.334;2024-03-08T08:08:40;54.2;;;22.87;;
39214;SDS011;24932;51.746;14.334;2024-03-08T08:12:38;51.03;;;22.33;;
39214;SDS011;24932;51.746;14.334;2024-03-08T08:16:40;48.43;;;21.37;;
39214;SDS011;24932;51.746;14.334;2024-03-08T08:20:40;42.33;;;20.83;;
39214;SDS011;24932;51.746;14.334;2024-03-08T08:24:39;46.37;;;19.83;;
39214;SDS011;24932;51.746;14.334;2024-03-08T08:28:40;42.3;;;19.03;;
39214;SDS011;24932;51.746;14.334;2024-03-08T08:32:40;33.83;;;17.2;;
39214;SDS011;24932;51.746;14.334;2024-03-08T08:36:39;27.13;;;14.5;;
39214;SDS011;24932;51.746;14.334;2024-03-08T08:40:40;35.03;;;13.03;;
39214;SDS011;24932;51.746;14.334;2024-03-08T08:44:40;26.73;;;13.1;;
39214;SDS011;24932;51.746;14.334;2024-03-08T08:48:40;25.53;;;12.93;;
39214;SDS011;24932;51.746;14.334;2024-03-08T08:52:40;29.33;;;14.23;;
39214;SDS011;24932;51.746;14.334;2024-03-08T08:56:39;30.73;;;13.3;;
39214;SDS011;24932;51.746;14.334;2024-03-08T09:00:39;36.33;;;13.87;;
39214;SDS011;24932;51.746;14.334;2024-03-08T09:04:40;30.58;;;14.98;;
39214;SDS011;24932;51.746;14.334;2024-03-08T09:08:39;29.63;;;14.77;;
39214;SDS011;24932;51.746;14.334;2024-03-08T09:12:39;35.42;;;16.27;;
39214;SDS011;24932;51.746;14.334;2024-03-08T09:16:40;28.1;;;11.3;;
39214;SDS011;24932;51.746;14.334;2024-03-08T09:20:39;24.92;;;12.07;;
39214;SDS011;24932;51.746;14.334;2024-03-08T09:24:39;21.3;;;10.32;;
39214;SDS011;24932;51.746;14.334;2024-03-08T09:28:39;17.85;;;7.55;;
39214;SDS011;24932;51.746;14.334;2024-03-08T09:32:40;16.5;;;7.45;;
39214;SDS011;24932;51.746;14.334;2024-03-08T09:36:38;22.33;;;9.4;;
39214;SDS011;24932;51.746;14.334;2024-03-08T09:40:40;18.05;;;8.57;;
39214;SDS011;24932;51.746;14.334;2024-03-08T09:44:40;13.85;;;7.47;;
39214;SDS011;24932;51.746;14.334;2024-03-08T09:48:40;18.02;;;8.4;;
39214;SDS011;24932;51.746;14.334;2024-03-08T09:52:40;16.17;;;8.48;;
39214;SDS011;24932;51.746;14.334;2024-03-08T09:56:39;15.52;;;8.43;;
39214;SDS011;24932;51.746;14.334;2024-03-08T10:00:39;12.13;;;6.18;;
39214;SDS011;24932;51.746;14.334;2024-03-08T10:04:40;19.7;;;8.45;;
39214;SDS011;24932;51.746;14.334;2024-03-08T10:08:39;14.35;;;7.75;;
39214;SDS011;24932;51.746;14.334;2024-03-08T10:12:40;19.15;;;9.52;;
39214;SDS011;24932;51.746;14.334;2024-03-08T10:16:40;17.12;;;7.4;;
39214;SDS011;24932;51.746;14.334;2024-03-08T10:20:40;17.3;;;7.95;;
39214;SDS011;24932;51.746;14.334;2024-03-08T10:24:41;18.05;;;8.75;;
39214;SDS011;24932;51.746;14.334;2024-03-08T10:28:38;19.0;;;8.98;;
39214;SDS011;24932;51.746;14.334;2024-03-08T10:32:39;19.55;;;9.65;;
39214;SDS011;24932;51.746;14.334;2024-03-08T10:36:40;16.6;;;9.4;;
39214;SDS011;24932;51.746;14.334;2024-03-08T10:40:38;16.92;;;7.72;;
39214;SDS011;24932;51.746;14.334;2024-03-08T10:44:42;18.95;;;8.95;;
39214;SDS011;24932;51.746;14.334;2024-03-08T10:48:41;19.23;;;9.8;;
39214;SDS011;24932;51.746;14.334;2024-03-08T10:52:38;20.48;;;9.6;;
39214;SDS011;24932;51.746;14.334;2024-03-08T10:56:38;18.0;;;8.9;;
39214;SDS011;24932;51.746;14.334;2024-03-08T11:00:39;17.15;;;9.23;;
39214;SDS011;24932;51.746;14.334;2024-03-08T11:04:45;19.25;;;8.7;;
39214;SDS011;24932;51.746;14.334;2024-03-08T11:08:38;19.85;;;7.68;;
39214;SDS011;24932;51.746;14.334;2024-03-08T11:12:40;22.13;;;9.6;;
39214;SDS011;24932;51.746;14.334;2024-03-08T11:16:40;17.77;;;8.65;;
39214;SDS011;24932;51.746;14.334;2024-03-08T11:20:39;15.38;;;7.97;;
39214;SDS011;24932;51.746;14.334;2024-03-08T11:24:39;18.87;;;8.68;;
39214;SDS011;24932;51.746;14.334;2024-03-08T11:28:39;17.7;;;8.43;;
39214;SDS011;24932;51.746;14.334;2024-03-08T11:32:41;20.6;;;8.57;;
39214;SDS011;24932;51.746;14.334;2024-03-08T11:36:39;16.9;;;8.85;;
39214;SDS011;24932;51.746;14.334;2024-03-08T11:40:39;17.48;;;7.35;;
39214;SDS011;24932;51.746;14.334;2024-03-08T11:44:40;18.15;;;9.5;;
39214;SDS011;24932;51.746;14.334;2024-03-08T11:48:39;19.55;;;9.7;;
39214;SDS011;24932;51.746;14.334;2024-03-08T11:52:39;20.12;;;9.95;;
39214;SDS011;24932;51.746;14.334;2024-03-08T11:56:40;20.92;;;10.18;;
39214;SDS011;24932;51.746;14.334;2024-03-08T12:00:40;22.87;;;11.3;;
39214;SDS011;24932;51.746;14.334;2024-03-08T12:04:40;17.37;;;10.0;;
39214;SDS011;24932;51.746;14.334;2024-03-08T12:08:39;20.25;;;9.2;;
39214;SDS011;24932;51.746;14.334;2024-03-08T12:12:40;21.8;;;10.35;;
39214;SDS011;24932;51.746;14.334;2024-03-08T12:16:39;19.27;;;9.5;;
39214;SDS011;24932;51.746;14.334;2024-03-08T12:20:38;20.05;;;10.27;;
39214;SDS011;24932;51.746;14.334;2024-03-08T12:24:39;18.25;;;9.93;;
39214;SDS011;24932;51.746;14.334;2024-03-08T12:28:39;18.67;;;11.02;;
39214;SDS011;24932;51.746;14.334;2024-03-08T12:32:39;20.95;;;10.93;;
39214;SDS011;24932;51.746;14.334;2024-03-08T12:36:40;16.17;;;9.3;;
39214;SDS011;24932;51.746;14.334;2024-03-08T12:40:38;18.77;;;10.0;;
39214;SDS011;24932;51.746;14.334;2024-03-08T12:44:38;21.5;;;11.63;;
39214;SDS011;24932;51.746;14.334;2024-03-08T12:48:39;24.52;;;11.35;;
39214;SDS011;24932;51.746;14.334;2024-03-08T12:52:40;18.15;;;8.07;;
39214;SDS011;24932;51.746;14.334;2024-03-08T12:56:40;20.05;;;10.27;;
39214;SDS011;24932;51.746;14.334;2024-03-08T13:00:39;20.75;;;10.05;;
39214;SDS011;24932;51.746;14.334;2024-03-08T13:04:39;26.27;;;11.23;;
39214;SDS011;24932;51.746;14.334;2024-03-08T13:08:40;17.42;;;9.7;;
39214;SDS011;24932;51.746;14.334;2024-03-08T13:12:38;21.17;;;10.2;;
39214;SDS011;24932;51.746;14.334;2024-03-08T13:16:40;19.92;;;11.18;;
39214;SDS011;24932;51.746;14.334;2024-03-08T13:20:48;23.42;;;11.4;;
39214;SDS011;24932;51.746;14.334;2024-03-08T13:24:40;18.37;;;11.1;;
39214;SDS011;24932;51.746;14.334;2024-03-08T13:28:39;21.62;;;11.0;;
39214;SDS011;24932;51.746;14.334;2024-03-08T13:32:39;17.95;;;9.6;;
39214;SDS011;24932;51.746;14.334;2024-03-08T13:36:40;18.1;;;10.32;;
39214;SDS011;24932;51.746;14.334;2024-03-08T13:40:39;20.5;;;10.25;;
39214;SDS011;24932;51.746;14.334;2024-03-08T13:44:43;24.77;;;11.35;;
39214;SDS011;24932;51.746;14.334;2024-03-08T13:48:39;29.17;;;11.18;;
39214;SDS011;24932;51.746;14.334;2024-03-08T13:52:39;20.98;;;11.5;;
39214;SDS011;24932;51.746;14.334;2024-03-08T13:56:39;16.67;;;8.85;;
39214;SDS011;24932;51.746;14.334;2024-03-08T14:00:39;23.02;;;12.07;;
39214;SDS011;24932;51.746;14.334;2024-03-08T14:04:41;21.15;;;12.05;;
39214;SDS011;24932;51.746;14.334;2024-03-08T14:08:40;21.08;;;12.18;;
39214;SDS011;24932;51.746;14.334;2024-03-08T14:12:39;28.33;;;13.1;;
39214;SDS011;24932;51.746;14.334;2024-03-08T14:16:38;21.7;;;12.7;;
39214;SDS011;24932;51.746;14.334;2024-03-08T14:20:39;24.0;;;12.52;;
39214;SDS011;24932;51.746;14.334;2024-03-08T14:24:40;24.77;;;13.05;;
39214;SDS011;24932;51.746;14.334;2024-03-08T14:28:38;24.5;;;12.23;;
39214;SDS011;24932;51.746;14.334;2024-03-08T14:32:38;25.73;;;13.68;;
39214;SDS011;24932;51.746;14.334;2024-03-08T14:36:40;22.42;;;13.05;;
39214;SDS011;24932;51.746;14.334;2024-03-08T14:40:39;26.5;;;14.52;;
39214;SDS011;24932;51.746;14.334;2024-03-08T14:44:38;31.33;;;13.4;;
39214;SDS011;24932;51.746;14.334;2024-03-08T14:48:38;24.25;;;14.73;;
39214;SDS011;24932;51.746;14.334;2024-03-08T14:52:40;22.73;;;12.77;;
39214;SDS011;24932;51.746;14.334;2024-03-08T14:56:39;24.95;;;13.4;;
39214;SDS011;24932;51.746;14.334;2024-03-08T15:00:40;25.55;;;13.8;;
39214;SDS011;24932;51.746;14.334;2024-03-08T15:04:39;24.98;;;13.93;;
39214;SDS011;24932;51.746;14.334;2024-03-08T15:08:39;25.92;;;13.7;;
39214;SDS011;24932;51.746;14.334;2024-03-08T15:12:40;24.05;;;13.43;;
39214;SDS011;24932;51.746;14.334;2024-03-08T15:16:40;24.73;;;13.02;;
39214;SDS011;24932;51.746;14.334;2024-03-08T15:20:39;24.6;;;13.68;;
39214;SDS011;24932;51.746;14.334;2024-03-08T15:24:40;25.92;;;13.5;;
39214;SDS011;24932;51.746;14.334;2024-03-08T15:28:39;22.55;;;12.4;;
39214;SDS011;24932;51.746;14.334;2024-03-08T15:32:39;27.62;;;13.38;;
39214;SDS011;24932;51.746;14.334;2024-03-08T15:36:39;24.08;;;14.57;;
39214;SDS011;24932;51.746;14.334;2024-03-08T15:40:39;25.27;;;14.43;;
39214;SDS011;24932;51.746;14.334;2024-03-08T15:44:40;29.2;;;15.93;;
39214;SDS011;24932;51.746;14.334;2024-03-08T15:48:39;25.0;;;14.02;;
39214;SDS011;24932;51.746;14.334;2024-03-08T15:52:42;24.08;;;14.5;;
39214;SDS011;24932;51.746;14.334;2024-03-08T15:56:39;27.15;;;14.6;;
39214;SDS011;24932;51.746;14.334;2024-03-08T16:00:40;25.0;;;13.13;;
39214;SDS011;24932;51.746;14.334;2024-03-08T16:04:40;28.1;;;14.87;;
39214;SDS011;24932;51.746;14.334;2024-03-08T16:08:39;31.75;;;15.0;;
39214;SDS011;24932;51.746;14.334;2024-03-08T16:12:40;27.8;;;15.35;;
39214;SDS011;24932;51.746;14.334;2024-03-08T16:16:40;33.75;;;17.9;;
39214;SDS011;24932;51.746;14.334;2024-03-08T16:20:39;36.35;;;16.58;;
39214;SDS011;24932;51.746;14.334;2024-03-08T16:24:42;31.62;;;16.67;;
39214;SDS011;24932;51.746;14.334;2024-03-08T16:28:41;30.05;;;15.25;;
39214;SDS011;24932;51.746;14.334;2024-03-08T16:32:41;32.95;;;15.88;;
39214;SDS011;24932;51.746;14.334;2024-03-08T16:36:40;34.35;;;16.77;;
39214;SDS011;24932;51.746;14.334;2024-03-08T16:40:38;40.53;;;16.85;;
39214;SDS011;24932;51.746;14.334;2024-03-08T16:44:40;33.42;;;17.35;;
39214;SDS011;24932;51.746;14.334;2024-03-08T16:48:39;35.15;;;18.48;;
39214;SDS011;24932;51.746;14.334;2024-03-08T16:52:40;35.0;;;18.0;;
39214;SDS011;24932;51.746;14.334;2024-03-08T16:56:38;36.33;;;17.95;;
39214;SDS011;24932;51.746;14.334;2024-03-08T17:00:40;40.03;;;18.55;;
39214;SDS011;24932;51.746;14.334;2024-03-08T17:04:39;46.8;;;20.37;;
39214;SDS011;24932;51.746;14.334;2024-03-08T17:08:39;38.25;;;19.77;;
39214;SDS011;24932;51.746;14.334;2024-03-08T17:12:41;38.75;;;18.83;;
39214;SDS011;24932;51.746;14.334;2024-03-08T17:16:40;37.22;;;19.35;;
39214;SDS011;24932;51.746;14.334;2024-03-08T17:20:40;41.37;;;19.55;;
39214;SDS011;24932;51.746;14.334;2024-03-08T17:24:38;37.85;;;16.58;;
39214;SDS011;24932;51.746;14.334;2024-03-08T17:28:40;42.05;;;21.05;;
39214;SDS011;24932;51.746;14.334;2024-03-08T17:32:39;38.15;;;18.7;;
39214;SDS011;24932;51.746;14.334;2024-03-08T17:36:40;39.9;;;19.7;;
39214;SDS011;24932;51.746;14.334;2024-03-08T17:40:40;33.53;;;17.08;;
39214;SDS011;24932;51.746;14.334;2024-03-08T17:44:38;39.6;;;18.8;;
39214;SDS011;24932;51.746;14.334;2024-03-08T17:48:40;42.35;;;19.75;;
39214;SDS011;24932;51.746;14.334;2024-03-08T17:52:41;42.3;;;21.6;;
39214;SDS011;24932;51.746;14.334;2024-03-08T17:56:40;36.4;;;18.85;;
39214;SDS011;24932;51.746;14.334;2024-03-08T18:00:40;42.17;;;18.85;;
39214;SDS011;24932;51.746;14.334;2024-03-08T18:04:39;35.45;;;18.35;;
39214;SDS011;24932;51.746;14.334;2024-03-08T18:08:39;42.95;;;18.65;;
39214;SDS011;24932;51.746;14.334;2024-03-08T18:12:39;34.05;;;17.58;;
39214;SDS011;24932;51.746;14.334;2024-03-08T18:16:38;37.05;;;16.45;;
39214;SDS011;24932;51.746;14.334;2024-03-08T18:20:39;42.4;;;18.08;;
39214;SDS011;24932;51.746;14.334;2024-03-08T18:24:39;38.75;;;17.05;;
39214;SDS011;24932;51.746;14.334;2024-03-08T18:28:40;29.37;;;14.87;;
39214;SDS011;24932;51.746;14.334;2024-03-08T18:32:42;28.98;;;14.95;;
39214;SDS011;24932;51.746;14.334;2024-03-08T18:36:40;31.43;;;15.07;;
39214;SDS011;24932;51.746;14.334;2024-03-08T18:40:39;34.2;;;14.5;;
39214;SDS011;24932;51.746;14.334;2024-03-08T18:44:40;26.9;;;13.77;;
39214;SDS011;24932;51.746;14.334;2024-03-08T18:48:40;30.1;;;13.82;;
39214;SDS011;24932;51.746;14.334;2024-03-08T18:52:39;31.67;;;12.97;;
39214;SDS011;24932;51.746;14.334;2024-03-08T18:56:38;31.7;;;13.55;;
39214;SDS011;24932;51.746;14.334;2024-03-08T19:00:40;29.57;;;14.27;;
39214;SDS011;24932;51.746;14.334;2024-03-08T19:04:39;29.7;;;13.9;;
39214;SDS011;24932;51.746;14.334;2024-03-08T19:08:40;24.93;;;12.17;;
39214;SDS011;24932;51.746;14.334;2024-03-08T19:12:39;29.45;;;12.63;;
39214;SDS011;24932;51.746;14.334;2024-03-08T19:16:40;30.9;;;14.63;;
39214;SDS011;24932;51.746;14.334;2024-03-08T19:20:39;27.93;;;13.27;;
39214;SDS011;24932;51.746;14.334;2024-03-08T19:24:40;26.67;;;13.5;;
39214;SDS011;24932;51.746;14.334;2024-03-08T19:28:40;27.43;;;12.57;;
39214;SDS011;24932;51.746;14.334;2024-03-08T19:32:39;29.53;;;12.73;;
39214;SDS011;24932;51.746;14.334;2024-03-08T19:36:40;24.53;;;11.97;;
39214;SDS011;24932;51.746;14.334;2024-03-08T19:40:39;28.57;;;13.5;;
39214;SDS011;24932;51.746;14.334;2024-03-08T19:44:40;27.5;;;13.2;;
39214;SDS011;24932;51.746;14.334;2024-03-08T19:48:40;32.0;;;14.57;;
39214;SDS011;24932;51.746;14.334;2024-03-08T19:52:40;33.3;;;13.47;;
39214;SDS011;24932;51.746;14.334;2024-03-08T19:56:38;27.23;;;13.43;;
39214;SDS011;24932;51.746;14.334;2024-03-08T20:00:40;33.93;;;15.2;;
39214;SDS011;24932;51.746;14.334;2024-03-08T20:04:40;31.53;;;14.1;;
39214;SDS011;24932;51.746;14.334;2024-03-08T20:08:39;26.9;;;13.3;;
39214;SDS011;24932;51.746;14.334;2024-03-08T20:12:40;33.13;;;13.37;;
39214;SDS011;24932;51.746;14.334;2024-03-08T20:16:39;29.07;;;14.7;;
39214;SDS011;24932;51.746;14.334;2024-03-08T20:20:39;24.77;;;13.47;;
39214;SDS011;24932;51.746;14.334;2024-03-08T20:24:39;25.67;;;12.43;;
39214;SDS011;24932;51.746;14.334;2024-03-08T20:28:40;30.33;;;14.57;;
39214;SDS011;24932;51.746;14.334;2024-03-08T20:32:39;26.6;;;12.9;;
39214;SDS011;24932;51.746;14.334;2024-03-08T20:36:40;34.03;;;14.97;;
39214;SDS011;24932;51.746;14.334;2024-03-08T20:40:38;35.9;;;15.57;;
39214;SDS011;24932;51.746;14.334;2024-03-08T20:44:40;35.57;;;15.87;;
39214;SDS011;24932;51.746;14.334;2024-03-08T20:48:39;41.87;;;16.37;;
39214;SDS011;24932;51.746;14.334;2024-03-08T20:52:39;37.1;;;15.07;;
39214;SDS011;24932;51.746;14.334;2024-03-08T20:56:42;32.2;;;14.67;;
39214;SDS011;24932;51.746;14.334;2024-03-08T21:00:39;32.1;;;15.5;;
39214;SDS011;24932;51.746;14.334;2024-03-08T21:04:40;35.73;;;15.2;;
39214;SDS011;24932;51.746;14.334;2024-03-08T21:08:40;29.4;;;14.13;;
39214;SDS011;24932;51.746;14.334;2024-03-08T21:12:41;34.67;;;16.07;;
39214;SDS011;24932;51.746;14.334;2024-03-08T21:16:40;36.03;;;14.87;;
39214;SDS011;24932;51.746;14.334;2024-03-08T21:20:40;39.7;;;16.67;;
39214;SDS011;24932;51.746;14.334;2024-03-08T21:24:40;29.6;;;14.8;;
39214;SDS011;24932;51.746;14.334;2024-03-08T21:28:39;36.6;;;16.2;;
39214;SDS011;24932;51.746;14.334;2024-03-08T21:32:38;37.47;;;15.5;;
39214;SDS011;24932;51.746;14.334;2024-03-08T21:36:39;41.43;;;16.97;;
39214;SDS011;24932;51.746;14.334;2024-03-08T21:40:48;42.5;;;17.13;;
39214;SDS011;24932;51.746;14.334;2024-03-08T21:44:39;34.57;;;16.17;;
39214;SDS011;24932;51.746;14.334;2024-03-08T21:48:40;36.97;;;17.2;;
39214;SDS011;24932;51.746;14.334;2024-03-08T21:52:40;35.17;;;18.4;;
39214;SDS011;24932;51.746;14.334;2024-03-08T21:56:40;40.87;;;18.13;;
39214;SDS011;24932;51.746;14.334;2024-03-08T22:00:40;48.03;;;19.6;;
39214;SDS011;24932;51.746;14.334;2024-03-08T22:04:40;43.87;;;18.73;;
39214;SDS011;24932;51.746;14.334;2024-03-08T22:08:39;47.03;;;19.43;;
39214;SDS011;24932;51.746;14.334;2024-03-08T22:12:38;43.17;;;20.23;;
39214;SDS011;24932;51.746;14.334;2024-03-08T22:16:38;42.53;;;18.63;;
39214;SDS011;24932;51.746;14.334;2024-03-08T22:20:40;47.83;;;20.77;;
39214;SDS011;24932;51.746;14.334;2024-03-08T22:24:40;36.83;;;18.23;;
39214;SDS011;24932;51.746;14.334;2024-03-08T22:28:40;46.03;;;19.27;;
39214;SDS011;24932;51.746;14.334;2024-03-08T22:32:40;50.4;;;20.77;;
39214;SDS011;24932;51.746;14.334;2024-03-08T22:36:40;46.93;;;19.77;;
39214;SDS011;24932;51.746;14.334;2024-03-08T22:40:40;52.1;;;21.87;;
39214;SDS011;24932;51.746;14.334;2024-03-08T22:44:40;46.77;;;19.53;;
39214;SDS011;24932;51.746;14.334;2024-03-08T22:48:39;48.67;;;21.33;;
39214;SDS011;24932;51.746;14.334;2024-03-08T22:52:40;56.53;;;21.8;;
39214;SDS011;24932;51.746;14.334;2024-03-08T22:56:40;43.37;;;19.87;;
39214;SDS011;24932;51.746;14.334;2024-03-08T23:00:38;48.17;;;20.77;;
39214;SDS011;24932;51.746;14.334;2024-03-08T23:04:39;54.5;;;22.27;;
39214;SDS011;24932;51.746;14.334;2024-03-08T23:08:40;46.47;;;21.73;;
39214;SDS011;24932;51.746;14.334;2024-03-08T23:12:38;55.47;;;23.6;;
39214;SDS011;24932;51.746;14.334;2024-03-08T23:16:39;50.0;;;21.07;;